Time;durP1;ratioP1;P1;durP2;ratioP2;P2;SDS_P1;SDS_P2;PMS_P1;PMS_P2;Temp;Humidity;BMP_temperature;BMP_pressure;BME280_temperature;BME280_humidity;BME280_pressure;Samples;Min_cycle;Max_cycle;Signal;HPM_P1;HPM_P2
2022/06/06 00:01:53;;;;;;;4.33;4.00;;;;;;;21.73;60.51;100843.59;4922900;28;96944;-50
2022/06/06 00:04:21;;;;;;;4.30;3.90;;;;;;;21.71;60.49;100846.22;4915915;28;99414;-50
2022/06/06 00:06:47;;;;;;;4.50;4.20;;;;;;;21.67;60.68;100843.78;4917658;28;97153;-50
2022/06/06 00:09:15;;;;;;;4.40;4.10;;;;;;;21.63;60.59;100838.59;4920179;28;97150;-49
2022/06/06 00:11:43;;;;;;;4.20;3.80;;;;;;;21.59;60.64;100843.09;4921377;28;97641;-49
2022/06/06 00:14:10;;;;;;;4.83;4.00;;;;;;;21.57;60.67;100840.84;4919691;28;97161;-49
2022/06/06 00:16:36;;;;;;;4.23;4.00;;;;;;;21.53;60.56;100843.31;4924735;28;97086;-49
2022/06/06 00:19:04;;;;;;;5.33;3.90;;;;;;;21.52;60.70;100841.03;4923146;28;97106;-49
2022/06/06 00:21:31;;;;;;;3.47;3.20;;;;;;;21.48;60.63;100833.03;4923958;28;97452;-49
2022/06/06 00:23:59;;;;;;;4.23;3.93;;;;;;;21.47;60.69;100853.22;4921388;28;97011;-49
2022/06/06 00:26:27;;;;;;;3.83;3.63;;;;;;;21.46;60.51;100860.09;4920986;28;97135;-50
2022/06/06 00:28:53;;;;;;;4.30;3.60;;;;;;;21.44;60.69;100859.94;4921536;28;97460;-49
2022/06/06 00:36:49;;;;;;;8.30;3.33;;;;;;;21.34;60.59;100870.94;4918941;28;97373;-49
2022/06/06 00:39:17;;;;;;;3.37;3.17;;;;;;;21.30;60.37;100876.19;4923012;28;97329;-50
2022/06/06 00:41:46;;;;;;;3.23;3.00;;;;;;;21.28;60.48;100870.41;4920637;28;97460;-50
2022/06/06 00:44:31;;;;;;;3.03;2.93;;;;;;;21.23;60.47;100865.00;4920055;28;97570;-49
2022/06/06 00:47:13;;;;;;;3.33;3.17;;;;;;;21.18;60.85;100861.09;4923426;28;99273;-50
2022/06/06 00:49:42;;;;;;;2.77;2.67;;;;;;;21.16;60.57;100868.56;4918785;28;96944;-51
2022/06/06 00:52:11;;;;;;;3.40;3.00;;;;;;;21.13;60.66;100872.47;4914616;28;98624;-49
2022/06/06 00:54:38;;;;;;;2.73;2.50;;;;;;;21.10;60.59;100868.72;4925981;28;101251;-49
2022/06/06 00:57:12;;;;;;;3.30;3.10;;;;;;;21.08;60.60;100871.34;4922436;28;97173;-49
2022/06/06 00:59:38;;;;;;;3.03;2.83;;;;;;;21.06;60.52;100876.00;4918406;28;97498;-49
2022/06/06 01:02:06;;;;;;;2.30;2.20;;;;;;;21.01;60.58;100871.34;4920127;28;97504;-50
2022/06/06 01:04:33;;;;;;;3.03;2.83;;;;;;;21.00;60.62;100869.84;4923205;28;97490;-50
2022/06/06 01:06:59;;;;;;;2.80;2.70;;;;;;;20.98;60.57;100861.25;4922523;28;97145;-50
2022/06/06 01:09:25;;;;;;;2.20;2.10;;;;;;;20.96;60.43;100864.63;4926794;28;97415;-50
2022/06/06 01:11:59;;;;;;;2.53;2.40;;;;;;;20.95;60.61;100870.78;4923824;28;100640;-49
2022/06/06 01:14:28;;;;;;;2.60;2.50;;;;;;;20.92;60.51;100862.19;4922229;28;101700;-49
2022/06/06 01:17:13;;;;;;;8.77;2.93;;;;;;;20.89;60.68;100860.53;4918475;28;97213;-49
2022/06/06 01:19:55;;;;;;;2.60;2.50;;;;;;;20.85;60.80;100868.53;4926458;28;97129;-50
2022/06/06 01:22:29;;;;;;;2.83;2.63;;;;;;;20.84;60.87;100869.84;4919046;28;97104;-49
2022/06/06 01:24:57;;;;;;;5.03;2.77;;;;;;;20.81;60.51;100861.84;4922394;28;97838;-49
2022/06/06 01:28:13;;;;;;;3.60;3.40;;;;;;;20.77;61.10;100862.19;4921937;28;96773;-49
2022/06/06 01:30:43;;;;;;;2.77;2.67;;;;;;;20.73;60.74;100859.00;4866028;28;97520;-49
2022/06/06 01:33:12;;;;;;;3.37;3.17;;;;;;;20.71;60.56;100861.63;4866205;28;100750;-49
2022/06/06 01:35:45;;;;;;;3.30;3.10;;;;;;;20.73;60.77;100859.00;4889926;28;97509;-49
2022/06/06 01:38:13;;;;;;;3.30;3.10;;;;;;;20.71;60.53;100866.47;4920159;28;97267;-49
2022/06/06 01:40:48;;;;;;;4.67;4.37;;;;;;;20.68;61.05;100868.34;4918577;28;96981;-50
2022/06/06 01:43:17;;;;;;;4.33;4.00;;;;;;;20.67;60.54;100866.09;4921708;28;97728;-50
2022/06/06 01:45:55;;;;;;;3.87;3.67;;;;;;;20.67;61.03;100874.47;4920839;28;96716;-49
2022/06/06 01:48:29;;;;;;;3.67;3.37;;;;;;;20.65;60.80;100868.69;4921320;28;97148;-50
2022/06/06 01:50:55;;;;;;;4.23;3.93;;;;;;;20.63;60.78;100880.47;4920707;28;97432;-50
2022/06/06 01:53:23;;;;;;;6.33;3.53;;;;;;;20.63;60.68;100877.66;4918157;28;98009;-50
2022/06/06 01:55:51;;;;;;;3.63;3.33;;;;;;;20.62;60.63;100872.63;4919540;28;98676;-51
2022/06/06 01:58:23;;;;;;;5.00;4.60;;;;;;;20.60;60.76;100883.59;4914541;28;96763;-49
2022/06/06 02:00:49;;;;;;;5.43;4.67;;;;;;;20.57;60.44;100874.31;4911922;28;97412;-50
2022/06/06 02:03:15;;;;;;;11.47;4.23;;;;;;;20.61;60.52;100873.94;4916262;28;97380;-50
2022/06/06 02:05:41;;;;;;;4.40;4.00;;;;;;;20.58;60.35;100861.03;4919601;28;97066;-50
2022/06/06 02:08:07;;;;;;;4.80;4.40;;;;;;;20.61;60.38;100871.13;4921457;28;97279;-49
2022/06/06 02:10:34;;;;;;;4.10;3.90;;;;;;;20.62;60.31;100864.97;4921301;28;97301;-49
2022/06/06 02:12:59;;;;;;;3.77;3.57;;;;;;;20.62;60.36;100875.44;4919496;28;98876;-49
2022/06/06 02:15:26;;;;;;;4.43;4.13;;;;;;;20.61;60.23;100879.50;4917755;28;97214;-49
2022/06/06 02:17:53;;;;;;;4.57;4.27;;;;;;;20.61;60.28;100876.72;4918778;28;97270;-49
2022/06/06 02:20:22;;;;;;;4.60;4.23;;;;;;;20.60;60.32;100867.56;4929682;28;97059;-49
2022/06/06 02:22:48;;;;;;;4.70;4.40;;;;;;;20.56;60.17;100860.88;4916999;28;97347;-51
2022/06/06 02:25:14;;;;;;;5.10;4.70;;;;;;;20.51;60.00;100865.31;4914277;28;97376;-49
2022/06/06 02:27:41;;;;;;;6.00;5.00;;;;;;;20.50;60.12;100865.88;4917427;28;97405;-50
2022/06/06 02:30:15;;;;;;;6.00;4.80;;;;;;;20.47;60.21;100870.53;4916853;28;97486;-50
2022/06/06 02:32:42;;;;;;;5.43;5.03;;;;;;;20.46;60.16;100873.91;4916722;28;97381;-50
2022/06/06 02:35:09;;;;;;;6.60;4.30;;;;;;;20.47;60.32;100880.97;4919531;28;97485;-50
2022/06/06 02:37:35;;;;;;;5.20;4.80;;;;;;;20.46;60.33;100883.03;4917589;28;97238;-50
2022/06/06 02:40:02;;;;;;;4.83;4.53;;;;;;;20.48;60.40;100880.44;4915314;28;97166;-50
2022/06/06 02:42:27;;;;;;;5.93;5.43;;;;;;;20.49;60.14;100889.53;4912912;28;97823;-50
2022/06/06 02:44:52;;;;;;;6.17;5.50;;;;;;;20.49;60.23;100893.09;4914888;28;97183;-48
2022/06/06 02:47:18;;;;;;;6.03;5.33;;;;;;;20.51;60.15;100896.06;4913977;28;97118;-50
2022/06/06 02:49:43;;;;;;;5.60;5.10;;;;;;;20.54;60.11;100891.44;4918306;28;97390;-49
2022/06/06 02:52:08;;;;;;;5.77;5.27;;;;;;;20.54;60.03;100889.38;4918229;28;98181;-50
2022/06/06 02:54:34;;;;;;;5.73;5.30;;;;;;;20.54;59.79;100892.19;4918502;28;97242;-49
2022/06/06 02:57:01;;;;;;;5.30;4.83;;;;;;;20.57;59.91;100893.13;4920201;28;96775;-52
2022/06/06 02:59:28;;;;;;;6.30;5.87;;;;;;;20.58;59.91;100891.81;4919662;28;96864;-49
2022/06/06 03:01:53;;;;;;;6.00;5.50;;;;;;;20.60;59.71;100892.75;4910324;28;97642;-50
2022/06/06 03:04:19;;;;;;;6.50;5.90;;;;;;;20.58;59.94;100883.41;4917546;28;97622;-49
2022/06/06 03:07:04;;;;;;;5.83;5.33;;;;;;;20.58;59.97;100898.16;4920344;28;97248;-50
2022/06/06 03:09:59;;;;;;;7.57;6.87;;;;;;;20.57;60.15;100887.53;4919210;28;97334;-50
2022/06/06 03:12:43;;;;;;;8.30;6.73;;;;;;;20.55;59.91;100899.25;4925159;28;100697;-51
2022/06/06 03:21:54;;;;;;;9.43;7.40;;;;;;;20.53;59.82;100912.31;4921558;28;96796;-52
2022/06/06 03:24:31;;;;;;;10.97;8.93;;;;;;;20.50;59.87;100907.81;4920755;28;103530;-52
2022/06/06 03:27:14;;;;;;;11.40;9.47;;;;;;;20.49;59.95;100912.66;4919248;28;101693;-49
2022/06/06 03:30:21;;;;;;;12.13;9.80;;;;;;;20.47;60.13;100904.09;4919483;28;97276;-48
2022/06/06 03:33:16;;;;;;;12.30;9.37;;;;;;;20.46;60.06;100916.59;4902989;28;97692;-49
2022/06/06 03:35:53;;;;;;;13.17;9.47;;;;;;;20.50;59.54;100932.97;4889776;28;100468;-49
2022/06/06 03:38:39;;;;;;;12.20;10.50;;;;;;;20.48;59.87;100922.34;4922261;28;97316;-50
2022/06/06 03:41:22;;;;;;;11.53;8.60;;;;;;;20.49;59.86;100926.63;4920670;28;97532;-52
2022/06/06 03:43:59;;;;;;;10.97;9.33;;;;;;;20.51;59.81;100929.63;4918710;28;97055;-49
2022/06/06 03:46:35;;;;;;;15.77;9.90;;;;;;;20.54;59.89;100936.91;4918268;28;97313;-51
2022/06/06 03:49:13;;;;;;;13.77;9.63;;;;;;;20.54;59.59;100925.72;4918344;28;97792;-51
2022/06/06 03:52:06;;;;;;;11.67;9.83;;;;;;;20.56;59.61;100931.50;4921300;28;97186;-49
2022/06/06 03:54:37;;;;;;;13.57;10.37;;;;;;;20.57;59.52;100929.47;4924713;28;97584;-49
2022/06/06 03:57:09;;;;;;;13.17;10.40;;;;;;;20.58;59.65;100940.06;4917788;28;97408;-49
2022/06/06 03:59:37;;;;;;;13.40;10.20;;;;;;;20.61;59.63;100941.03;4919527;28;97592;-51
2022/06/06 04:02:05;;;;;;;13.50;10.47;;;;;;;20.65;59.55;100938.59;4918812;28;97587;-50
2022/06/06 04:04:31;;;;;;;12.23;9.83;;;;;;;20.66;59.41;100940.84;4922895;28;97081;-49
2022/06/06 04:07:00;;;;;;;11.93;10.70;;;;;;;20.69;59.48;100939.72;4919602;28;97437;-50
2022/06/06 04:09:29;;;;;;;12.37;10.07;;;;;;;20.73;59.54;100942.91;4920028;28;102083;-52
2022/06/06 04:12:11;;;;;;;12.37;9.90;;;;;;;20.75;59.68;100950.75;4921917;28;103460;-52
2022/06/06 04:14:36;;;;;;;11.50;9.00;;;;;;;20.76;59.50;100949.44;4921806;28;96923;-48
2022/06/06 04:17:26;;;;;;;10.43;8.57;;;;;;;20.80;59.74;100947.03;4919024;28;97320;-49
2022/06/06 04:20:18;;;;;;;10.67;8.37;;;;;;;20.80;59.65;100947.78;4920929;28;100359;-49
2022/06/06 04:23:05;;;;;;;10.20;8.80;;;;;;;20.79;59.89;100943.47;4906633;28;97038;-49
2022/06/06 04:25:40;;;;;;;13.17;10.47;;;;;;;20.79;59.56;100954.66;4923471;28;97068;-49
2022/06/06 04:28:28;;;;;;;14.33;11.10;;;;;;;20.79;60.16;100945.53;4920713;28;97937;-49
2022/06/06 04:31:12;;;;;;;17.30;13.97;;;;;;;20.80;60.17;100947.03;4924012;28;101897;-48
2022/06/06 04:34:09;;;;;;;21.40;15.17;;;;;;;20.78;59.67;100944.78;4920262;28;97101;-50
2022/06/06 04:36:41;;;;;;;19.77;14.40;;;;;;;20.80;60.03;100947.03;4920778;28;97529;-49
2022/06/06 04:39:23;;;;;;;18.70;15.17;;;;;;;20.81;59.95;100942.94;4919418;28;97436;-48
2022/06/06 04:41:56;;;;;;;20.33;14.73;;;;;;;20.82;59.49;100944.41;4924263;28;96842;-50
2022/06/06 04:44:53;;;;;;;17.37;14.00;;;;;;;20.82;59.71;100961.19;4921435;28;97022;-50
2022/06/06 04:47:27;;;;;;;15.87;13.17;;;;;;;20.81;59.48;100951.31;4913459;28;96894;-48
2022/06/06 04:49:56;;;;;;;15.33;12.93;;;;;;;20.77;59.18;100965.66;4914203;28;97325;-49
2022/06/06 04:52:22;;;;;;;17.37;13.10;;;;;;;20.77;59.22;100973.31;4918319;28;97362;-50
2022/06/06 04:54:48;;;;;;;15.27;12.00;;;;;;;20.78;59.15;100966.41;4918349;28;97340;-48
2022/06/06 04:57:17;;;;;;;14.83;12.30;;;;;;;20.76;59.27;100969.78;4917129;28;96966;-49
2022/06/06 04:59:44;;;;;;;15.47;12.20;;;;;;;20.75;59.04;100982.25;4919770;28;101940;-53
2022/06/06 05:02:09;;;;;;;14.70;10.13;;;;;;;20.76;58.78;100974.59;4918597;28;97740;-49
2022/06/06 05:04:35;;;;;;;11.93;9.97;;;;;;;20.78;58.77;100978.34;4922709;28;97216;-49
2022/06/06 05:07:27;;;;;;;13.20;9.90;;;;;;;20.78;58.45;100975.56;4921552;28;97259;-48
2022/06/06 05:10:07;;;;;;;14.63;9.27;;;;;;;20.77;58.23;100987.31;4917763;28;100664;-48
2022/06/06 05:13:17;;;;;;;13.77;10.17;;;;;;;20.74;58.45;100997.53;4918591;28;100327;-48
2022/06/06 05:16:05;;;;;;;11.07;8.80;;;;;;;20.75;58.30;100990.63;4921903;28;97641;-48
2022/06/06 05:18:48;;;;;;;10.77;9.33;;;;;;;20.73;58.21;100990.44;4917023;28;97148;-49
2022/06/06 05:21:34;;;;;;;10.90;7.97;;;;;;;20.67;58.14;100994.72;4916314;28;103370;-47
2022/06/06 05:24:18;;;;;;;10.90;7.80;;;;;;;20.66;58.15;101004.41;4919243;28;97192;-49
2022/06/06 05:27:17;;;;;;;13.20;8.30;;;;;;;20.69;58.23;100992.09;4915604;28;97103;-50
2022/06/06 05:29:59;;;;;;;15.77;8.30;;;;;;;20.70;58.02;100999.97;4917236;28;97061;-51
2022/06/06 05:32:38;;;;;;;9.57;7.83;;;;;;;20.70;58.05;101005.56;4917858;28;100734;-51
2022/06/06 05:35:04;;;;;;;12.73;8.07;;;;;;;20.74;57.84;101007.97;4917723;28;96855;-48
2022/06/06 05:37:57;;;;;;;11.47;8.27;;;;;;;20.74;57.72;101008.72;4918767;28;100205;-50
2022/06/06 05:40:25;;;;;;;9.00;7.57;;;;;;;20.78;57.78;101016.75;4920389;28;96658;-53
2022/06/06 05:43:05;;;;;;;12.57;8.07;;;;;;;20.84;57.84;101018.06;4917528;28;97424;-49
2022/06/06 05:46:07;;;;;;;7.67;6.80;;;;;;;20.88;57.52;101021.25;4919671;28;101832;-49
2022/06/06 05:48:58;;;;;;;9.67;7.13;;;;;;;20.88;57.33;101021.25;4920792;28;96722;-49
2022/06/06 05:52:00;;;;;;;8.93;7.00;;;;;;;20.86;57.20;101018.25;4919282;28;97478;-48
2022/06/06 05:54:55;;;;;;;11.10;7.17;;;;;;;20.88;57.20;101026.84;4922120;28;100506;-51
2022/06/06 05:57:42;;;;;;;7.70;6.67;;;;;;;20.92;57.16;101026.50;4912507;28;100260;-50
2022/06/06 06:00:16;;;;;;;9.83;6.13;;;;;;;21.05;57.35;101031.97;4917009;28;96861;-48
2022/06/06 06:02:57;;;;;;;8.00;6.60;;;;;;;21.17;57.09;101030.28;4917290;28;96762;-49
2022/06/06 06:05:56;;;;;;;8.67;6.27;;;;;;;21.22;56.65;101023.78;4919632;28;98032;-53
2022/06/06 06:08:45;;;;;;;9.67;6.67;;;;;;;21.31;56.18;101028.06;4919296;28;101650;-49
2022/06/06 06:11:24;;;;;;;7.83;6.20;;;;;;;21.36;56.59;101027.88;4919518;28;96820;-49
2022/06/06 06:14:02;;;;;;;7.37;6.30;;;;;;;21.40;56.30;101036.69;4915426;28;96757;-50
2022/06/06 06:16:31;;;;;;;6.70;5.80;;;;;;;21.47;56.39;101038.00;4916019;28;100702;-50
2022/06/06 06:19:20;;;;;;;7.87;6.03;;;;;;;21.50;55.84;101042.47;4914720;28;97299;-48
2022/06/06 06:21:53;;;;;;;6.60;5.27;;;;;;;21.49;56.19;101047.31;4917175;28;97023;-48
2022/06/06 06:24:24;;;;;;;6.57;5.57;;;;;;;21.45;55.58;101060.19;4913866;28;97217;-49
2022/06/06 06:26:51;;;;;;;6.53;5.63;;;;;;;21.38;56.09;101066.53;4915339;28;97402;-51
2022/06/06 06:29:17;;;;;;;5.97;4.80;;;;;;;21.36;56.12;101055.16;4917629;28;97360;-48
2022/06/06 06:32:23;;;;;;;4.80;4.13;;;;;;;21.31;55.61;101062.41;4920183;28;96773;-50
2022/06/06 06:35:06;;;;;;;5.43;4.20;;;;;;;21.19;55.80;101069.66;4916999;28;97032;-49
2022/06/06 06:37:37;;;;;;;7.50;4.83;;;;;;;21.17;56.06;101068.72;4917802;28;97349;-48
2022/06/06 06:40:11;;;;;;;5.50;4.50;;;;;;;21.13;55.79;101080.28;4917300;28;96883;-49
2022/06/06 06:42:49;;;;;;;4.67;4.23;;;;;;;21.11;55.95;101080.09;4917828;28;96998;-51
2022/06/06 06:45:27;;;;;;;4.53;4.13;;;;;;;21.08;55.97;101083.28;4916213;28;96969;-49
2022/06/06 06:47:59;;;;;;;4.33;3.93;;;;;;;21.05;55.80;101085.13;4918424;28;102416;-48
2022/06/06 06:50:52;;;;;;;4.80;4.20;;;;;;;21.02;55.91;101085.44;4917456;28;97863;-48
2022/06/06 06:53:33;;;;;;;4.27;3.90;;;;;;;21.04;55.95;101071.66;4908805;28;97039;-47
2022/06/06 06:56:17;;;;;;;4.30;3.90;;;;;;;21.00;55.84;101083.22;4921064;28;97061;-48
2022/06/06 06:59:08;;;;;;;5.50;4.23;;;;;;;21.00;55.90;101077.63;4918858;28;97465;-48
2022/06/06 07:08:32;;;;;;;4.13;3.73;;;;;;;21.05;55.75;101084.38;4918258;28;101543;-51
2022/06/06 07:10:37;;;;;;;4.07;3.57;;;;;;;21.33;55.63;101087.06;4915938;28;100630;-50
2022/06/06 07:13:05;;;;;;;4.00;3.63;;;;;;;21.38;55.43;101086.13;4920881;28;97240;-49
2022/06/06 07:15:39;;;;;;;3.90;3.60;;;;;;;21.45;55.34;101088.19;4921931;28;97007;-49
2022/06/06 07:18:08;;;;;;;2.93;2.70;;;;;;;21.50;55.33;101093.59;4918064;28;97415;-48
2022/06/06 07:20:35;;;;;;;3.07;2.83;;;;;;;21.58;55.32;101093.59;4920107;28;96678;-49
2022/06/06 07:23:09;;;;;;;3.43;3.13;;;;;;;21.68;55.15;101094.56;4920342;28;98304;-48
2022/06/06 07:25:48;;;;;;;2.93;2.73;;;;;;;21.75;55.03;101096.63;4917969;28;97362;-51
2022/06/06 07:28:16;;;;;;;3.00;2.80;;;;;;;21.82;54.96;101103.53;4919607;28;97348;-47
2022/06/06 07:30:52;;;;;;;2.70;2.50;;;;;;;21.83;54.71;101088.97;4919015;28;98552;-48
2022/06/06 07:33:43;;;;;;;3.17;2.97;;;;;;;21.84;54.21;101093.25;4917596;28;96932;-50
2022/06/06 07:36:19;;;;;;;4.43;3.40;;;;;;;21.83;54.60;101088.22;4920925;28;97207;-48
2022/06/06 07:39:06;;;;;;;4.93;4.00;;;;;;;21.85;54.27;101080.75;4924172;28;97057;-48
2022/06/06 07:41:58;;;;;;;3.50;3.20;;;;;;;21.96;54.35;101083.19;4916442;28;103069;-50
2022/06/06 07:44:39;;;;;;;3.17;2.90;;;;;;;22.08;54.54;101089.16;4920728;28;100169;-49
2022/06/06 07:47:13;;;;;;;4.40;3.33;;;;;;;22.10;53.92;101087.28;4917920;28;97335;-50
2022/06/06 07:50:00;;;;;;;4.20;3.80;;;;;;;22.20;54.07;101082.59;4920866;28;96747;-48
2022/06/06 07:52:41;;;;;;;7.70;4.80;;;;;;;22.27;53.92;101086.69;4914743;28;101925;-48
2022/06/06 07:55:15;;;;;;;5.47;4.97;;;;;;;22.36;54.06;101080.50;4921848;28;96963;-50
2022/06/06 07:58:12;;;;;;;6.10;5.50;;;;;;;22.46;53.33;101087.00;4923117;28;99378;-49
2022/06/06 08:00:38;;;;;;;7.40;6.00;;;;;;;22.53;53.76;101083.44;4921349;28;96959;-51
2022/06/06 08:03:15;;;;;;;6.63;5.77;;;;;;;22.55;53.47;101085.69;4926395;28;97452;-48
2022/06/06 08:05:40;;;;;;;6.13;5.53;;;;;;;22.61;53.76;101091.84;4926242;28;96947;-47
2022/06/06 08:08:19;;;;;;;8.37;6.10;;;;;;;22.64;53.03;101097.09;4915634;28;96989;-51
2022/06/06 08:10:46;;;;;;;7.43;6.70;;;;;;;22.65;53.32;101098.56;4920898;28;97407;-49
2022/06/06 08:13:40;;;;;;;7.17;6.47;;;;;;;22.66;53.03;101104.94;4920182;28;97517;-51
2022/06/06 08:16:11;;;;;;;7.40;6.57;;;;;;;22.72;52.97;101097.81;4918326;28;101862;-50
2022/06/06 08:18:58;;;;;;;8.80;7.07;;;;;;;22.65;52.26;101095.03;4922309;28;97464;-50
2022/06/06 08:21:37;;;;;;;8.30;7.20;;;;;;;22.61;52.72;101091.84;4939428;28;96979;-49
2022/06/06 08:24:06;;;;;;;8.27;7.40;;;;;;;22.51;52.91;101097.28;4923735;28;97666;-49
2022/06/06 08:26:36;;;;;;;8.57;7.73;;;;;;;22.47;53.07;101091.31;4914903;28;97316;-54
2022/06/06 08:29:04;;;;;;;8.20;7.17;;;;;;;22.49;53.23;101096.34;4915990;28;97207;-51
2022/06/06 08:31:29;;;;;;;8.47;7.57;;;;;;;22.48;53.09;101095.59;4916240;28;97409;-52
2022/06/06 08:33:55;;;;;;;8.33;7.50;;;;;;;22.56;53.07;101093.53;4918530;28;97471;-51
2022/06/06 08:36:57;;;;;;;7.43;6.80;;;;;;;22.67;52.76;101098.75;4920829;28;97000;-48
2022/06/06 08:39:54;;;;;;;9.77;7.40;;;;;;;22.95;52.64;101103.31;4914305;28;97463;-52
2022/06/06 08:42:25;;;;;;;7.73;7.03;;;;;;;23.18;52.58;101098.31;4919239;28;97631;-52
2022/06/06 08:44:51;;;;;;;11.40;7.87;;;;;;;23.33;52.27;101103.88;4920234;28;97067;-48
2022/06/06 08:47:30;;;;;;;8.57;7.77;;;;;;;23.37;51.71;101095.06;4919973;28;99080;-51
2022/06/06 08:50:47;;;;;;;7.77;7.07;;;;;;;23.40;51.55;101099.53;4914786;28;97677;-50
2022/06/06 08:53:34;;;;;;;8.40;7.60;;;;;;;23.49;51.72;101108.09;4917060;28;97271;-49
2022/06/06 08:56:05;;;;;;;9.40;7.93;;;;;;;23.54;51.65;101101.50;4915563;28;97469;-51
2022/06/06 08:58:55;;;;;;;8.53;7.03;;;;;;;23.61;50.60;101102.78;4919753;28;98314;-48
2022/06/06 09:01:44;;;;;;;7.43;6.77;;;;;;;23.54;50.79;101095.91;4917926;28;96883;-48
2022/06/06 09:04:58;;;;;;;7.10;6.40;;;;;;;23.37;50.14;101093.00;4919362;28;96661;-50
2022/06/06 09:08:04;;;;;;;7.17;6.57;;;;;;;23.26;50.80;101096.25;4918392;28;100742;-50
2022/06/06 09:11:07;;;;;;;6.47;5.87;;;;;;;23.21;51.10;101097.19;4914552;28;100327;-51
2022/06/06 09:13:50;;;;;;;5.20;4.77;;;;;;;23.30;50.88;101107.81;4913689;28;97541;-48
2022/06/06 09:16:22;;;;;;;5.67;5.17;;;;;;;23.40;51.01;101097.47;4915904;28;97513;-51
2022/06/06 09:19:24;;;;;;;7.47;6.17;;;;;;;23.58;50.40;101087.81;4918166;28;97669;-49
2022/06/06 09:22:08;;;;;;;5.63;5.13;;;;;;;23.91;50.28;101085.66;4918714;28;100160;-49
2022/06/06 09:25:11;;;;;;;7.03;6.43;;;;;;;24.03;50.72;101089.47;4916267;28;97124;-47
2022/06/06 09:27:45;;;;;;;5.67;5.10;;;;;;;24.16;50.54;101086.38;4919809;28;97171;-50
2022/06/06 09:30:38;;;;;;;5.40;5.00;;;;;;;24.26;49.63;101092.09;4921550;28;101734;-48
2022/06/06 09:33:22;;;;;;;5.63;5.10;;;;;;;24.33;48.83;101089.19;4916850;28;100164;-51
2022/06/06 09:36:08;;;;;;;5.53;5.03;;;;;;;24.43;49.40;101094.91;4917305;28;96847;-52
2022/06/06 09:39:03;;;;;;;5.30;4.90;;;;;;;24.34;49.01;101085.06;4920982;28;97133;-49
2022/06/06 09:41:36;;;;;;;4.47;4.10;;;;;;;24.32;49.56;101092.59;4911998;28;103128;-48
2022/06/06 09:44:22;;;;;;;4.90;4.50;;;;;;;24.23;48.82;101090.44;4920186;28;96740;-49
2022/06/06 09:47:09;;;;;;;5.23;4.80;;;;;;;24.31;48.66;101093.94;4918012;28;97511;-51
2022/06/06 09:49:44;;;;;;;4.07;3.77;;;;;;;24.32;49.57;101090.53;4921051;28;96822;-51
2022/06/06 09:52:35;;;;;;;4.10;3.80;;;;;;;24.32;48.44;101086.97;4920001;28;97348;-51
2022/06/06 09:59:13;;;;;;;4.07;3.70;;;;;;;24.59;48.21;101093.44;4917094;28;97103;-49
2022/06/06 10:01:34;;;;;;;3.77;3.47;;;;;;;24.83;48.10;101086.22;4913003;28;97442;-49
2022/06/06 10:04:24;;;;;;;3.80;3.50;;;;;;;24.98;47.26;101095.22;4914803;28;97414;-49
2022/06/06 10:07:17;;;;;;;2.57;2.47;;;;;;;25.17;45.65;101100.22;4916141;28;101961;-48
2022/06/06 10:09:55;;;;;;;3.20;3.00;;;;;;;25.28;46.26;101094.03;4917201;28;97202;-49
2022/06/06 10:12:39;;;;;;;2.73;2.53;;;;;;;25.38;45.90;101099.72;4919665;28;97328;-48
2022/06/06 10:15:18;;;;;;;2.87;2.30;;;;;;;25.41;44.94;101092.91;4919564;28;97261;-49
2022/06/06 10:18:08;;;;;;;3.20;3.00;;;;;;;25.44;45.16;101088.97;4916467;28;98433;-49
2022/06/06 10:20:49;;;;;;;2.63;2.43;;;;;;;25.48;44.64;101097.72;4917918;28;96677;-51
2022/06/06 10:23:36;;;;;;;2.67;2.57;;;;;;;25.62;45.14;101099.56;4918236;28;97298;-49
2022/06/06 10:26:10;;;;;;;2.17;2.07;;;;;;;25.79;46.11;101101.56;4915554;28;101772;-48
2022/06/06 10:28:48;;;;;;;2.33;2.13;;;;;;;25.95;44.28;101097.13;4937597;23;97693;-48
2022/06/06 10:31:33;;;;;;;2.17;1.97;;;;;;;26.00;45.27;101091.22;4939448;28;97164;-48
2022/06/06 10:34:08;;;;;;;2.23;1.80;;;;;;;26.01;42.10;101094.78;4937212;28;98468;-49
2022/06/06 10:36:42;;;;;;;1.37;1.27;;;;;;;26.00;43.34;101093.28;4937325;28;102100;-47
2022/06/06 10:39:19;;;;;;;1.50;1.40;;;;;;;26.07;44.06;101089.59;4934044;28;100460;-48
2022/06/06 10:41:53;;;;;;;1.37;1.27;;;;;;;26.06;42.30;101099.38;4936826;28;97405;-49
2022/06/06 10:44:27;;;;;;;2.03;1.33;;;;;;;26.09;42.98;101098.25;4927879;28;97505;-47
2022/06/06 10:47:14;;;;;;;1.60;1.50;;;;;;;26.02;43.97;101096.25;4933541;28;102408;-48
2022/06/06 10:50:01;;;;;;;1.97;1.80;;;;;;;26.06;43.48;101096.56;4938133;28;97433;-48
2022/06/06 10:52:54;;;;;;;1.53;1.43;;;;;;;26.16;42.52;101094.53;4938326;28;97125;-49
2022/06/06 10:55:34;;;;;;;2.07;1.30;;;;;;;26.25;40.99;101093.81;4939935;28;96893;-48
2022/06/06 10:58:18;;;;;;;1.73;1.63;;;;;;;26.31;41.18;101101.97;4935303;28;103132;-48
2022/06/06 11:01:26;;;;;;;1.80;1.70;;;;;;;26.32;41.19;101104.19;4940621;28;98171;-48
2022/06/06 11:04:25;;;;;;;2.20;1.33;;;;;;;26.33;41.47;101113.41;4924742;28;97071;-47
2022/06/06 11:07:28;;;;;;;1.17;1.17;;;;;;;26.36;41.16;101095.31;4934894;28;99325;-48
2022/06/06 11:10:03;;;;;;;1.90;1.27;;;;;;;26.36;41.74;101095.31;4934986;28;102001;-48
2022/06/06 11:12:40;;;;;;;1.70;1.60;;;;;;;26.44;42.42;101090.25;4934623;28;97177;-48
2022/06/06 11:15:06;;;;;;;1.80;1.70;;;;;;;26.40;42.05;101096.34;4935757;28;97166;-47
2022/06/06 11:17:50;;;;;;;2.90;1.73;;;;;;;26.45;40.35;101080.47;4936969;28;97029;-48
2022/06/06 11:20:40;;;;;;;1.33;1.23;;;;;;;26.55;40.32;101089.66;4932532;28;103204;-48
2022/06/06 11:23:30;;;;;;;1.70;1.60;;;;;;;26.61;40.02;101082.38;4941874;28;99888;-48
2022/06/06 11:26:33;;;;;;;1.30;1.20;;;;;;;26.68;39.90;101087.13;4939103;28;97222;-48
2022/06/06 11:29:09;;;;;;;1.17;1.07;;;;;;;26.77;39.64;101076.44;4936140;28;97535;-49
2022/06/06 11:31:59;;;;;;;1.50;1.37;;;;;;;26.83;39.39;101074.03;4939662;28;98425;-48
2022/06/06 11:34:37;;;;;;;1.00;1.00;;;;;;;26.92;39.19;101079.69;4942344;28;101638;-48
2022/06/06 11:37:24;;;;;;;0.90;0.90;;;;;;;26.83;39.83;101071.97;4940417;28;97245;-49
2022/06/06 11:40:21;;;;;;;1.00;1.00;;;;;;;26.64;38.72;101086.84;4940097;28;97222;-47
2022/06/06 11:43:05;;;;;;;1.30;1.20;;;;;;;26.66;40.50;101078.50;4931597;28;101713;-49
2022/06/06 11:46:02;;;;;;;1.37;1.27;;;;;;;26.64;39.48;101075.53;4935729;28;97731;-48
2022/06/06 11:48:54;;;;;;;2.73;1.30;;;;;;;26.90;38.68;101085.19;4934946;28;99599;-48
2022/06/06 11:51:35;;;;;;;1.13;1.07;;;;;;;27.05;38.26;101084.09;4936736;28;97128;-48
2022/06/06 11:54:22;;;;;;;1.50;1.10;;;;;;;27.14;38.66;101086.16;4936709;28;97050;-47
2022/06/06 11:57:00;;;;;;;0.87;0.87;;;;;;;27.27;39.38;101082.84;4939872;28;100308;-47
2022/06/06 11:59:50;;;;;;;1.50;1.30;;;;;;;27.40;38.99;101085.22;4935314;28;97507;-48
2022/06/06 12:02:21;;;;;;;0.97;0.77;;;;;;;27.44;39.65;101080.59;4940503;28;97064;-48
2022/06/06 12:05:24;;;;;;;0.90;0.77;;;;;;;27.57;39.56;101082.16;4937238;28;97613;-47
2022/06/06 12:08:08;;;;;;;0.70;0.70;;;;;;;27.55;38.45;101087.69;4932557;28;101145;-48
2022/06/06 12:10:59;;;;;;;1.13;0.70;;;;;;;27.33;38.46;101083.28;4933593;28;96816;-48
2022/06/06 12:13:46;;;;;;;1.00;0.90;;;;;;;27.07;38.80;101092.72;4930306;28;97201;-48
2022/06/06 12:16:28;;;;;;;2.60;0.80;;;;;;;26.91;39.68;101097.97;4936064;28;100916;-48
2022/06/06 12:19:17;;;;;;;1.03;0.93;;;;;;;27.10;39.90;101088.72;4937028;28;98408;-48
2022/06/06 12:21:54;;;;;;;1.20;1.00;;;;;;;27.32;39.56;101095.94;4939492;28;97023;-48
2022/06/06 12:24:38;;;;;;;1.10;1.00;;;;;;;27.33;37.88;101092.50;4935772;28;97372;-48
2022/06/06 12:27:24;;;;;;;1.17;1.07;;;;;;;27.17;39.37;101087.81;4933221;28;97573;-47
2022/06/06 12:29:55;;;;;;;1.20;0.93;;;;;;;27.17;39.37;101087.81;4936941;28;101440;-49
2022/06/06 12:32:27;;;;;;;1.47;0.73;;;;;;;27.21;38.49;101088.09;4933259;28;97171;-48
2022/06/06 12:35:15;;;;;;;1.07;0.97;;;;;;;27.28;39.22;101087.19;4940544;28;96779;-53
2022/06/06 12:38:10;;;;;;;1.17;0.70;;;;;;;27.22;38.52;101089.56;4932834;28;97529;-48